createdAt,value
2023-08-01T00:00:32.523Z,5.20
2023-08-01T00:03:34.512Z,6.03
2023-08-01T00:06:41.242Z,5.20
2023-08-01T00:09:46.507Z,5.50
2023-08-01T00:12:48.348Z,5.55
2023-08-01T00:16:06.269Z,5.13
2023-08-01T00:19:12.951Z,5.18
2023-08-01T00:22:18.465Z,6.35
2023-08-01T00:25:20.732Z,6.50
2023-08-01T00:28:25.772Z,5.88
2023-08-01T00:31:27.615Z,6.43
2023-08-01T00:34:29.558Z,7.55
2023-08-01T00:37:36.095Z,7.47
2023-08-01T00:40:40.815Z,7.07
2023-08-01T00:43:42.661Z,7.93
2023-08-01T00:46:44.576Z,8.03
2023-08-01T00:49:50.937Z,6.28
2023-08-01T00:52:53.345Z,7.38
2023-08-01T00:55:55.216Z,8.82
2023-08-01T00:58:57.074Z,8.43
2023-08-01T01:01:59.845Z,7.20
2023-08-01T01:05:05.940Z,9.35
2023-08-01T01:08:11.442Z,8.85
2023-08-01T01:11:13.258Z,9.82
2023-08-01T01:14:15.255Z,10.90
2023-08-01T01:17:17.232Z,9.60
2023-08-01T01:20:25.249Z,9.73
2023-08-01T01:23:30.104Z,10.77
2023-08-01T01:26:37.534Z,12.65
2023-08-01T01:29:39.550Z,11.05
2023-08-01T01:32:41.511Z,12.53
2023-08-01T01:35:46.607Z,13.38
2023-08-01T01:38:48.471Z,12.07
2023-08-01T01:41:54.141Z,13.63
2023-08-01T01:44:56.063Z,12.43
2023-08-01T01:47:57.940Z,13.13
2023-08-01T01:51:04.279Z,11.10
2023-08-01T01:54:06.095Z,9.55
2023-08-01T01:57:07.933Z,9.38
2023-08-01T02:00:13.126Z,11.73
2023-08-01T02:03:15.004Z,10.20
2023-08-01T02:06:16.877Z,12.80
2023-08-01T02:09:18.780Z,8.73
2023-08-01T02:12:21.850Z,9.30
2023-08-01T02:15:23.711Z,10.68
2023-08-01T02:18:25.550Z,11.47
2023-08-01T02:21:27.335Z,10.05
2023-08-01T02:24:32.702Z,10.75
2023-08-01T02:27:34.603Z,12.55
2023-08-01T02:30:37.003Z,11.65
2023-08-01T02:33:39.091Z,10.50
2023-08-01T02:36:44.710Z,16.50
2023-08-01T02:39:46.578Z,10.60
2023-08-01T02:42:48.450Z,11.10
2023-08-01T02:45:50.623Z,11.00
2023-08-01T02:48:53.403Z,12.80
2023-08-01T02:51:58.718Z,14.32
2023-08-01T02:55:00.655Z,14.57
2023-08-01T02:58:02.478Z,17.27
2023-08-01T03:01:10.989Z,20.98
2023-08-01T03:04:13.116Z,17.87
2023-08-01T03:07:14.966Z,14.85
2023-08-01T03:10:35.644Z,16.63
2023-08-01T03:13:39.093Z,18.58
2023-08-01T03:16:41.286Z,17.17
2023-08-01T03:19:43.376Z,18.03
2023-08-01T03:22:49.398Z,18.67
2023-08-01T03:25:51.259Z,24.08
2023-08-01T03:28:53.072Z,26.00
2023-08-01T03:31:54.933Z,20.67
2023-08-01T03:34:56.772Z,26.13
2023-08-01T03:38:01.632Z,22.25
2023-08-01T03:41:05.334Z,26.63
2023-08-01T03:44:07.185Z,17.35
2023-08-01T03:47:09.120Z,20.50
2023-08-01T03:50:11.260Z,20.57
2023-08-01T03:53:13.128Z,16.83
2023-08-01T03:56:22.129Z,17.35
2023-08-01T03:59:24.256Z,20.30
2023-08-01T04:02:26.152Z,24.08
2023-08-01T04:05:29.293Z,23.23
2023-08-01T04:08:31.380Z,20.40
2023-08-01T04:11:33.587Z,20.48
2023-08-01T04:14:35.939Z,18.13
2023-08-01T04:17:37.827Z,13.57
2023-08-01T04:20:39.689Z,13.80
2023-08-01T04:23:42.007Z,12.45
2023-08-01T04:26:44.012Z,12.20
2023-08-01T04:29:46.229Z,13.27
2023-08-01T04:32:48.060Z,17.35
2023-08-01T04:35:50.466Z,19.90
2023-08-01T04:38:56.122Z,18.98
2023-08-01T04:41:57.979Z,16.90
2023-08-01T04:44:59.787Z,17.50
2023-08-01T04:48:01.792Z,22.85
2023-08-01T04:51:04.427Z,26.57
2023-08-01T04:54:06.266Z,64.65
2023-08-01T04:57:08.157Z,54.70
2023-08-01T05:00:11.205Z,47.38
2023-08-01T05:03:13.122Z,44.75
2023-08-01T05:06:15.656Z,42.47
2023-08-01T05:09:20.638Z,49.85
2023-08-01T05:12:22.507Z,53.90
2023-08-01T05:15:24.549Z,56.08
2023-08-01T05:18:26.569Z,48.17
2023-08-01T05:21:28.539Z,23.80
2023-08-01T05:24:33.830Z,19.55
2023-08-01T05:27:35.691Z,13.98
2023-08-01T05:30:37.515Z,10.27
2023-08-01T05:33:39.458Z,18.17
2023-08-01T05:36:41.567Z,19.43
2023-08-01T05:39:43.568Z,22.95
2023-08-01T05:42:48.875Z,16.95
2023-08-01T05:45:53.453Z,25.60
2023-08-01T05:48:55.706Z,26.35
2023-08-01T05:51:57.900Z,20.80
2023-08-01T05:54:59.760Z,17.27
2023-08-01T05:58:01.651Z,11.52
2023-08-01T06:01:03.830Z,9.82
2023-08-01T06:04:05.844Z,7.22
2023-08-01T06:07:07.877Z,8.30
2023-08-01T06:10:14.183Z,16.13
2023-08-01T06:13:16.518Z,13.63
2023-08-01T06:16:18.389Z,11.35
2023-08-01T06:19:20.412Z,9.48
2023-08-01T06:22:22.266Z,15.33
2023-08-01T06:25:27.877Z,8.90
2023-08-01T06:28:29.721Z,10.98
2023-08-01T06:31:31.680Z,9.48
2023-08-01T06:34:33.538Z,10.20
2023-08-01T06:37:35.363Z,10.13
2023-08-01T06:40:41.483Z,15.40
2023-08-01T06:43:43.706Z,11.25
2023-08-01T06:46:45.714Z,10.15
2023-08-01T06:49:47.649Z,9.25
2023-08-01T06:52:49.481Z,6.70
2023-08-01T06:55:55.511Z,7.15
2023-08-01T06:58:57.487Z,7.43
2023-08-01T07:01:59.477Z,10.05
2023-08-01T07:05:01.430Z,7.30
2023-08-01T07:08:03.584Z,9.13
2023-08-01T07:11:05.711Z,10.73
2023-08-01T07:14:11.503Z,8.30
2023-08-01T07:17:13.497Z,7.47
2023-08-01T07:20:15.469Z,5.68
2023-08-01T07:23:17.553Z,5.97
2023-08-01T07:26:19.394Z,6.18
2023-08-01T07:29:21.276Z,6.22
2023-08-01T07:32:23.131Z,4.72
2023-08-01T07:35:24.987Z,5.32
2023-08-01T07:38:28.304Z,5.40
2023-08-01T07:41:34.073Z,6.00
2023-08-01T07:44:35.961Z,6.68
2023-08-01T07:47:37.877Z,6.68
2023-08-01T07:50:39.794Z,7.30
2023-08-01T07:53:41.686Z,8.33
2023-08-01T07:56:48.162Z,6.78
2023-08-01T07:59:50.043Z,6.25
2023-08-01T08:02:51.901Z,7.32
2023-08-01T08:05:53.786Z,7.70
2023-08-01T08:08:55.607Z,6.47
2023-08-01T08:11:58.782Z,5.63
2023-08-01T08:15:00.675Z,5.47
2023-08-01T08:18:05.588Z,5.72
2023-08-01T08:21:07.577Z,4.95
2023-08-01T08:24:09.513Z,5.53
2023-08-01T08:27:11.396Z,4.70
2023-08-01T08:30:13.276Z,5.60
2023-08-01T08:33:21.333Z,6.60
2023-08-01T08:36:23.111Z,5.60
2023-08-01T08:39:25.033Z,5.57
2023-08-01T08:42:26.901Z,6.50
2023-08-01T08:45:28.788Z,5.63
2023-08-01T08:48:30.926Z,7.22
2023-08-01T08:51:32.893Z,8.93
2023-08-01T08:54:34.833Z,7.57
2023-08-01T08:57:39.906Z,7.72
2023-08-01T09:00:41.837Z,7.68
2023-08-01T09:03:45.299Z,6.63
2023-08-01T09:06:51.891Z,6.45
2023-08-01T09:09:54.526Z,7.50
2023-08-01T09:12:56.378Z,8.68
2023-08-01T09:15:58.369Z,9.35
2023-08-01T09:19:00.407Z,8.70
2023-08-01T09:22:03.085Z,8.98
2023-08-01T09:25:05.168Z,7.17
2023-08-01T09:28:19.621Z,5.07
2023-08-01T09:31:31.885Z,4.38
2023-08-01T09:34:34.014Z,6.25
2023-08-01T09:37:42.897Z,5.53
2023-08-01T09:40:45.688Z,5.50
2023-08-01T09:43:48.167Z,4.65
2023-08-01T09:47:22.558Z,5.40
2023-08-01T09:50:25.091Z,4.85
2023-08-01T09:53:26.867Z,5.07
2023-08-01T09:56:31.866Z,4.17
2023-08-01T09:59:37.441Z,4.78
2023-08-01T10:02:39.525Z,6.38
2023-08-01T10:05:41.418Z,7.90
2023-08-01T10:08:43.757Z,7.00
2023-08-01T10:11:50.456Z,6.87
2023-08-01T10:14:52.405Z,8.30
2023-08-01T10:17:54.308Z,6.82
2023-08-01T10:20:56.184Z,5.90
2023-08-01T10:23:58.040Z,7.40
2023-08-01T10:27:12.805Z,8.07
2023-08-01T10:30:18.121Z,5.88
2023-08-01T10:33:19.980Z,7.20
2023-08-01T10:36:24.017Z,8.68
2023-08-01T10:39:26.784Z,8.98
2023-08-01T10:42:39.274Z,4.43
2023-08-01T10:45:43.942Z,6.35
2023-08-01T10:48:54.742Z,4.45
2023-08-01T10:51:56.539Z,7.65
2023-08-01T10:55:02.726Z,7.95
2023-08-01T10:58:08.669Z,7.43
2023-08-01T11:01:10.439Z,6.22
2023-08-01T11:04:16.759Z,4.05
2023-08-01T11:07:18.578Z,5.28
2023-08-01T11:10:20.340Z,4.75
2023-08-01T11:13:22.319Z,6.00
2023-08-01T11:16:24.290Z,4.78
2023-08-01T11:19:27.897Z,3.97
2023-08-01T11:22:31.686Z,4.57
2023-08-01T11:25:44.394Z,5.25
2023-08-01T11:28:49.494Z,4.57
2023-08-01T11:32:01.290Z,5.57
2023-08-01T11:35:03.572Z,7.50
2023-08-01T11:38:06.119Z,7.07
2023-08-01T11:41:07.905Z,5.28
2023-08-01T11:44:12.306Z,4.53
2023-08-01T11:47:18.030Z,7.07
2023-08-01T11:50:27.986Z,7.75
2023-08-01T11:53:30.459Z,9.43
2023-08-01T11:56:32.516Z,7.55
2023-08-01T11:59:37.333Z,5.50
2023-08-01T12:02:39.089Z,5.50
2023-08-01T12:05:51.162Z,7.05
2023-08-01T12:08:53.675Z,5.57
2023-08-01T12:12:02.261Z,5.07
2023-08-01T12:15:08.662Z,4.27
2023-08-01T12:18:10.403Z,4.10
2023-08-01T12:21:12.123Z,7.07
2023-08-01T12:24:13.967Z,10.52
2023-08-01T12:27:16.529Z,14.38
2023-08-01T12:30:22.586Z,7.77
2023-08-01T12:33:26.334Z,10.13
2023-08-01T12:36:30.076Z,10.45
2023-08-01T12:39:31.973Z,6.95
2023-08-01T12:42:33.840Z,6.03
2023-08-01T12:45:38.432Z,6.20
2023-08-01T12:48:43.083Z,6.45
2023-08-01T12:51:44.828Z,6.25
2023-08-01T12:54:46.632Z,5.38
2023-08-01T12:57:48.512Z,6.38
2023-08-01T13:00:50.411Z,6.10
2023-08-01T13:03:55.346Z,7.70
2023-08-01T13:06:57.132Z,7.30
2023-08-01T13:09:59.279Z,5.63
2023-08-01T13:13:04.466Z,4.53
2023-08-01T13:16:06.351Z,13.73
2023-08-01T13:19:08.668Z,15.82
2023-08-01T13:22:10.468Z,12.80
2023-08-01T13:25:12.271Z,10.27
2023-08-01T13:28:14.131Z,8.13
2023-08-01T13:31:16.014Z,9.93
2023-08-01T13:34:22.570Z,14.45
2023-08-01T13:37:28.084Z,9.65
2023-08-01T13:40:29.929Z,9.75
2023-08-01T13:43:31.770Z,6.57
2023-08-01T13:46:36.623Z,5.30
2023-08-01T13:49:38.576Z,4.32
2023-08-01T13:52:44.873Z,4.28
2023-08-01T13:55:47.376Z,7.50
2023-08-01T13:58:49.172Z,9.25
2023-08-01T14:01:54.344Z,18.10
2023-08-01T14:05:00.701Z,11.07
2023-08-01T14:08:03.410Z,7.47
2023-08-01T14:11:07.100Z,3.53
2023-08-01T14:14:08.983Z,4.38
2023-08-01T14:17:13.693Z,6.03
2023-08-01T14:20:18.567Z,8.77
2023-08-01T14:23:21.291Z,10.15
2023-08-01T14:26:23.223Z,13.00
2023-08-01T14:29:25.133Z,11.77
2023-08-01T14:32:30.476Z,7.67
2023-08-01T14:35:32.905Z,8.85
2023-08-01T14:38:35.305Z,6.25
2023-08-01T14:42:02.540Z,6.75
2023-08-01T14:44:59.093Z,4.60
2023-08-01T14:48:00.942Z,8.57
2023-08-01T14:51:11.628Z,9.93
2023-08-01T14:54:14.070Z,5.25
2023-08-01T14:57:17.607Z,5.68
2023-08-01T15:00:19.517Z,7.43
2023-08-01T15:03:24.649Z,7.00
2023-08-01T15:06:27.923Z,12.85
2023-08-01T15:09:30.089Z,8.88
2023-08-01T15:12:31.964Z,8.10
2023-08-01T15:15:40.050Z,6.25
2023-08-01T15:18:45.972Z,8.03
2023-08-01T15:21:51.465Z,8.40
2023-08-01T15:24:53.289Z,7.28
2023-08-01T15:27:55.386Z,8.48
2023-08-01T15:31:07.651Z,6.35
2023-08-01T15:34:10.255Z,5.33
2023-08-01T15:37:12.207Z,8.18
2023-08-01T15:40:14.200Z,6.20
2023-08-01T15:43:16.085Z,6.35
2023-08-01T15:46:18.032Z,9.55
2023-08-01T15:49:24.084Z,6.70
2023-08-01T15:52:25.877Z,6.30
2023-08-01T15:55:27.763Z,6.18
2023-08-01T15:58:32.666Z,5.63
2023-08-01T16:01:34.540Z,9.57
2023-08-01T16:04:40.743Z,7.50
2023-08-01T16:07:45.387Z,6.72
2023-08-01T16:10:47.229Z,4.93
2023-08-01T16:13:52.780Z,6.22
2023-08-01T16:16:54.823Z,4.63
2023-08-01T16:19:57.013Z,5.80
2023-08-01T16:22:58.905Z,5.05
2023-08-01T16:26:03.595Z,7.82
2023-08-01T16:29:05.410Z,7.07
2023-08-01T16:32:07.663Z,6.85
2023-08-01T16:35:13.374Z,5.87
2023-08-01T16:38:15.469Z,8.25
2023-08-01T16:41:27.122Z,8.10
2023-08-01T16:44:28.982Z,4.80
2023-08-01T16:47:41.464Z,4.20
2023-08-01T16:50:49.066Z,4.73
2023-08-01T16:53:53.665Z,5.38
2023-08-01T16:56:55.641Z,5.30
2023-08-01T16:59:57.473Z,4.70
2023-08-01T17:02:59.410Z,4.68
2023-08-01T17:06:05.640Z,5.07
2023-08-01T17:09:10.117Z,4.50
2023-08-01T17:12:12.234Z,4.45
2023-08-01T17:15:14.125Z,5.28
2023-08-01T17:18:19.340Z,4.65
2023-08-01T17:21:21.382Z,4.30
2023-08-01T17:24:23.353Z,4.03
2023-08-01T17:27:25.228Z,4.05
2023-08-01T17:30:27.087Z,4.88
2023-08-01T17:33:29.009Z,5.22
2023-08-01T17:36:34.847Z,3.47
2023-08-01T17:39:37.384Z,2.92
2023-08-01T17:42:39.405Z,3.47
2023-08-01T17:45:41.443Z,2.67
2023-08-01T17:48:43.488Z,5.05
2023-08-01T17:51:48.841Z,3.50
2023-08-01T17:54:51.126Z,4.00
2023-08-01T17:57:53.028Z,2.85
2023-08-01T18:00:54.997Z,2.88
2023-08-01T18:03:57.844Z,4.28
2023-08-01T18:07:08.131Z,2.95
2023-08-01T18:10:10.195Z,3.33
2023-08-01T18:13:12.005Z,3.27
2023-08-01T18:16:24.226Z,2.90
2023-08-01T18:19:26.118Z,3.30
2023-08-01T18:22:29.496Z,3.78
2023-08-01T18:25:37.811Z,3.57
2023-08-01T18:28:39.600Z,3.97
2023-08-01T18:31:41.461Z,3.60
2023-08-01T18:34:43.314Z,4.50
2023-08-01T18:37:45.185Z,3.22
2023-08-01T18:40:51.122Z,4.57
2023-08-01T18:44:00.146Z,5.43
2023-08-01T18:47:01.944Z,3.70
2023-08-01T18:50:07.659Z,4.43
2023-08-01T18:53:14.019Z,3.97
2023-08-01T18:56:20.267Z,4.47
2023-08-01T18:59:22.333Z,4.13
2023-08-01T19:02:24.345Z,4.28
2023-08-01T19:05:29.751Z,5.50
2023-08-01T19:08:34.467Z,5.80
2023-08-01T19:11:36.526Z,4.53
2023-08-01T19:14:38.420Z,4.07
2023-08-01T19:17:40.570Z,4.53
2023-08-01T19:20:42.411Z,4.65
2023-08-01T19:23:44.503Z,6.07
2023-08-01T19:26:46.331Z,4.50
2023-08-01T19:29:51.821Z,3.93
2023-08-01T19:32:53.705Z,4.13
2023-08-01T19:35:55.714Z,3.80
2023-08-01T19:39:00.751Z,4.35
2023-08-01T19:42:02.599Z,4.07
2023-08-01T19:45:05.666Z,5.60
2023-08-01T19:48:09.741Z,4.00
2023-08-01T19:51:12.260Z,4.18
2023-08-01T19:54:14.133Z,4.90
2023-08-01T19:57:16.010Z,4.17
2023-08-01T20:00:17.947Z,4.33
2023-08-01T20:03:21.476Z,4.50
2023-08-01T20:06:23.535Z,4.05
2023-08-01T20:09:28.855Z,5.47
2023-08-01T20:12:30.775Z,4.20
2023-08-01T20:15:36.309Z,6.00
2023-08-01T20:18:38.234Z,3.95
2023-08-01T20:21:42.796Z,4.95
2023-08-01T20:24:44.618Z,4.65
2023-08-01T20:27:50.213Z,5.27
2023-08-01T20:30:52.308Z,5.47
2023-08-01T20:33:54.174Z,4.93
2023-08-01T20:36:59.590Z,5.20
2023-08-01T20:40:01.617Z,5.57
2023-08-01T20:43:04.017Z,6.50
2023-08-01T20:46:06.007Z,5.07
2023-08-01T20:49:07.886Z,4.70
2023-08-01T20:52:09.773Z,5.07
2023-08-01T20:55:11.725Z,5.97
2023-08-01T20:58:13.677Z,4.93
2023-08-01T21:01:15.583Z,5.03
2023-08-01T21:04:17.471Z,6.22
2023-08-01T21:07:20.538Z,5.28
2023-08-01T21:10:22.578Z,5.47
2023-08-01T21:13:27.941Z,5.97
2023-08-01T21:16:29.835Z,5.83
2023-08-01T21:19:31.880Z,5.10
2023-08-01T21:22:33.709Z,4.57
2023-08-01T21:25:35.603Z,3.63
2023-08-01T21:28:37.706Z,5.23
2023-08-01T21:31:39.575Z,4.27
2023-08-01T21:34:41.398Z,4.22
2023-08-01T21:37:43.220Z,4.50
2023-08-01T21:40:44.991Z,4.85
2023-08-01T21:43:46.952Z,5.07
2023-08-01T21:46:48.844Z,5.10
2023-08-01T21:49:50.709Z,4.47
2023-08-01T21:52:52.705Z,4.40
2023-08-01T21:55:54.672Z,5.03
2023-08-01T21:59:00.144Z,5.17
2023-08-01T22:02:04.836Z,5.80
2023-08-01T22:05:07.301Z,5.05
2023-08-01T22:08:09.429Z,4.93
2023-08-01T22:11:11.311Z,5.15
2023-08-01T22:14:15.986Z,6.53
2023-08-01T22:17:20.668Z,6.60
2023-08-01T22:20:22.753Z,7.13
2023-08-01T22:23:24.790Z,5.50
2023-08-01T22:26:26.692Z,6.30
2023-08-01T22:29:28.627Z,7.03
2023-08-01T22:32:30.469Z,4.87
2023-08-01T22:35:32.339Z,6.30
2023-08-01T22:38:34.118Z,5.43
2023-08-01T22:41:35.957Z,6.07
2023-08-01T22:44:37.891Z,5.10
2023-08-01T22:47:40.772Z,6.20
2023-08-01T22:50:42.675Z,7.40
2023-08-01T22:53:51.817Z,5.22
2023-08-01T22:56:53.774Z,6.40
2023-08-01T22:59:59.192Z,5.60
2023-08-01T23:03:01.264Z,7.03
2023-08-01T23:06:03.310Z,5.28
2023-08-01T23:09:05.951Z,5.60
2023-08-01T23:12:12.200Z,5.68
2023-08-01T23:15:14.132Z,7.07
2023-08-01T23:18:20.438Z,5.53
2023-08-01T23:21:22.346Z,6.20
2023-08-01T23:24:24.258Z,6.40
2023-08-01T23:27:28.904Z,5.95
2023-08-01T23:30:30.833Z,6.47
2023-08-01T23:33:32.764Z,5.97
2023-08-01T23:36:34.641Z,5.35
2023-08-01T23:39:36.672Z,7.47
2023-08-01T23:42:38.759Z,6.25
2023-08-01T23:45:54.397Z,7.87
2023-08-01T23:48:56.479Z,6.47
2023-08-01T23:51:58.351Z,5.20
2023-08-01T23:55:00.433Z,5.15
2023-08-01T23:58:02.270Z,5.60
